sensor_id;sensor_type;location;lat;lon;timestamp;temperature;humidity
10802;DHT22;5453;50.852;7.102;2023-05-24T00:01:32;11.80;99.90
10802;DHT22;5453;50.852;7.102;2023-05-24T00:04:06;11.80;99.90
10802;DHT22;5453;50.852;7.102;2023-05-24T00:06:38;11.70;99.90
10802;DHT22;5453;50.852;7.102;2023-05-24T00:09:11;11.70;99.90
10802;DHT22;5453;50.852;7.102;2023-05-24T00:11:43;11.60;99.90
10802;DHT22;5453;50.852;7.102;2023-05-24T00:14:15;11.60;99.90
10802;DHT22;5453;50.852;7.102;2023-05-24T00:16:48;11.60;99.90
10802;DHT22;5453;50.852;7.102;2023-05-24T00:19:21;11.60;99.90
10802;DHT22;5453;50.852;7.102;2023-05-24T00:21:54;11.50;99.90
10802;DHT22;5453;50.852;7.102;2023-05-24T00:24:26;11.50;99.90
10802;DHT22;5453;50.852;7.102;2023-05-24T00:26:58;11.50;99.90
10802;DHT22;5453;50.852;7.102;2023-05-24T00:29:32;11.40;99.90
10802;DHT22;5453;50.852;7.102;2023-05-24T00:32:05;11.40;99.90
10802;DHT22;5453;50.852;7.102;2023-05-24T00:34:38;11.30;99.90
10802;DHT22;5453;50.852;7.102;2023-05-24T00:37:10;11.30;99.90
10802;DHT22;5453;50.852;7.102;2023-05-24T00:39:43;11.30;99.90
10802;DHT22;5453;50.852;7.102;2023-05-24T00:42:15;11.30;99.90
10802;DHT22;5453;50.852;7.102;2023-05-24T00:44:47;11.20;99.90
10802;DHT22;5453;50.852;7.102;2023-05-24T00:47:19;11.20;99.90
10802;DHT22;5453;50.852;7.102;2023-05-24T00:49:53;11.20;99.90
10802;DHT22;5453;50.852;7.102;2023-05-24T00:52:25;11.10;99.90
10802;DHT22;5453;50.852;7.102;2023-05-24T00:54:59;11.10;99.90
10802;DHT22;5453;50.852;7.102;2023-05-24T00:57:32;11.00;99.90
10802;DHT22;5453;50.852;7.102;2023-05-24T01:00:07;11.00;99.90
10802;DHT22;5453;50.852;7.102;2023-05-24T01:02:40;11.00;99.90
10802;DHT22;5453;50.852;7.102;2023-05-24T01:05:14;10.90;99.90
10802;DHT22;5453;50.852;7.102;2023-05-24T01:08:01;10.90;99.90
10802;DHT22;5453;50.852;7.102;2023-05-24T01:10:42;10.80;99.90
10802;DHT22;5453;50.852;7.102;2023-05-24T01:13:23;10.80;99.90
10802;DHT22;5453;50.852;7.102;2023-05-24T01:16:06;10.70;99.90
10802;DHT22;5453;50.852;7.102;2023-05-24T01:18:46;10.70;99.90
10802;DHT22;5453;50.852;7.102;2023-05-24T01:21:36;10.60;99.90
10802;DHT22;5453;50.852;7.102;2023-05-24T01:24:25;10.60;99.90
10802;DHT22;5453;50.852;7.102;2023-05-24T01:27:11;10.60;99.90
10802;DHT22;5453;50.852;7.102;2023-05-24T01:29:45;10.50;99.90
10802;DHT22;5453;50.852;7.102;2023-05-24T01:32:23;10.50;99.90
10802;DHT22;5453;50.852;7.102;2023-05-24T01:34:55;10.40;99.90
10802;DHT22;5453;50.852;7.102;2023-05-24T01:37:27;10.40;99.90
10802;DHT22;5453;50.852;7.102;2023-05-24T01:40:00;10.40;99.90
10802;DHT22;5453;50.852;7.102;2023-05-24T01:42:38;10.30;99.90
10802;DHT22;5453;50.852;7.102;2023-05-24T01:45:16;10.20;99.90
10802;DHT22;5453;50.852;7.102;2023-05-24T01:48:03;10.20;99.90
10802;DHT22;5453;50.852;7.102;2023-05-24T01:50:44;10.10;99.90
10802;DHT22;5453;50.852;7.102;2023-05-24T01:53:19;10.10;99.90
10802;DHT22;5453;50.852;7.102;2023-05-24T01:55:53;10.00;99.90
10802;DHT22;5453;50.852;7.102;2023-05-24T01:58:29;10.00;99.90
10802;DHT22;5453;50.852;7.102;2023-05-24T02:01:02;9.90;99.90
10802;DHT22;5453;50.852;7.102;2023-05-24T02:03:35;9.80;99.90
10802;DHT22;5453;50.852;7.102;2023-05-24T02:06:08;9.80;99.90
10802;DHT22;5453;50.852;7.102;2023-05-24T02:08:42;9.80;99.90
10802;DHT22;5453;50.852;7.102;2023-05-24T02:11:16;9.70;99.90
10802;DHT22;5453;50.852;7.102;2023-05-24T02:13:53;9.70;99.90
10802;DHT22;5453;50.852;7.102;2023-05-24T02:16:25;9.70;99.90
10802;DHT22;5453;50.852;7.102;2023-05-24T02:19:00;9.70;99.90
10802;DHT22;5453;50.852;7.102;2023-05-24T02:21:32;9.60;99.90
10802;DHT22;5453;50.852;7.102;2023-05-24T02:24:04;9.60;99.90
10802;DHT22;5453;50.852;7.102;2023-05-24T02:26:38;9.60;99.90
10802;DHT22;5453;50.852;7.102;2023-05-24T02:29:11;9.50;99.90
10802;DHT22;5453;50.852;7.102;2023-05-24T02:31:43;9.50;99.90
10802;DHT22;5453;50.852;7.102;2023-05-24T02:34:16;9.50;99.90
10802;DHT22;5453;50.852;7.102;2023-05-24T02:36:48;9.50;99.90
10802;DHT22;5453;50.852;7.102;2023-05-24T02:39:20;9.40;99.90
10802;DHT22;5453;50.852;7.102;2023-05-24T02:41:52;9.40;99.90
10802;DHT22;5453;50.852;7.102;2023-05-24T02:44:26;9.40;99.90
10802;DHT22;5453;50.852;7.102;2023-05-24T02:46:58;9.30;99.90
10802;DHT22;5453;50.852;7.102;2023-05-24T02:49:30;9.30;99.90
10802;DHT22;5453;50.852;7.102;2023-05-24T02:52:02;9.30;99.90
10802;DHT22;5453;50.852;7.102;2023-05-24T02:54:35;9.20;99.90
10802;DHT22;5453;50.852;7.102;2023-05-24T02:57:09;9.20;99.90
10802;DHT22;5453;50.852;7.102;2023-05-24T02:59:44;9.20;99.90
10802;DHT22;5453;50.852;7.102;2023-05-24T03:02:16;9.10;99.90
10802;DHT22;5453;50.852;7.102;2023-05-24T03:04:49;9.10;99.90
10802;DHT22;5453;50.852;7.102;2023-05-24T03:07:21;9.10;99.90
10802;DHT22;5453;50.852;7.102;2023-05-24T03:09:53;9.00;99.90
10802;DHT22;5453;50.852;7.102;2023-05-24T03:12:25;9.00;99.90
10802;DHT22;5453;50.852;7.102;2023-05-24T03:15:00;9.00;99.90
10802;DHT22;5453;50.852;7.102;2023-05-24T03:17:35;8.90;99.90
10802;DHT22;5453;50.852;7.102;2023-05-24T03:20:07;8.90;99.90
10802;DHT22;5453;50.852;7.102;2023-05-24T03:22:41;8.90;99.90
10802;DHT22;5453;50.852;7.102;2023-05-24T03:25:13;8.90;99.90
10802;DHT22;5453;50.852;7.102;2023-05-24T03:27:45;8.80;99.90
10802;DHT22;5453;50.852;7.102;2023-05-24T03:30:18;8.80;99.90
10802;DHT22;5453;50.852;7.102;2023-05-24T03:32:57;8.80;99.90
10802;DHT22;5453;50.852;7.102;2023-05-24T03:35:29;8.80;99.90
10802;DHT22;5453;50.852;7.102;2023-05-24T03:38:01;8.70;99.90
10802;DHT22;5453;50.852;7.102;2023-05-24T03:40:36;8.70;99.90
10802;DHT22;5453;50.852;7.102;2023-05-24T03:43:16;8.70;99.90
10802;DHT22;5453;50.852;7.102;2023-05-24T03:45:59;8.70;99.90
10802;DHT22;5453;50.852;7.102;2023-05-24T03:48:31;8.70;99.90
10802;DHT22;5453;50.852;7.102;2023-05-24T03:51:03;8.70;99.90
10802;DHT22;5453;50.852;7.102;2023-05-24T03:53:38;8.70;99.90
10802;DHT22;5453;50.852;7.102;2023-05-24T03:56:10;8.60;99.90
10802;DHT22;5453;50.852;7.102;2023-05-24T03:58:42;8.60;99.90
10802;DHT22;5453;50.852;7.102;2023-05-24T04:01:16;8.70;99.90
10802;DHT22;5453;50.852;7.102;2023-05-24T04:03:49;8.60;99.90
10802;DHT22;5453;50.852;7.102;2023-05-24T04:06:25;8.70;99.90
10802;DHT22;5453;50.852;7.102;2023-05-24T04:08:59;8.70;99.90
10802;DHT22;5453;50.852;7.102;2023-05-24T04:11:33;8.70;99.90
10802;DHT22;5453;50.852;7.102;2023-05-24T04:14:06;8.70;99.90
10802;DHT22;5453;50.852;7.102;2023-05-24T04:16:39;8.70;99.90
10802;DHT22;5453;50.852;7.102;2023-05-24T04:19:14;8.70;99.90
10802;DHT22;5453;50.852;7.102;2023-05-24T04:21:46;8.80;99.90
10802;DHT22;5453;50.852;7.102;2023-05-24T04:24:18;8.80;99.90
10802;DHT22;5453;50.852;7.102;2023-05-24T04:26:50;8.90;99.90
10802;DHT22;5453;50.852;7.102;2023-05-24T04:29:22;9.00;99.90
10802;DHT22;5453;50.852;7.102;2023-05-24T04:31:57;9.10;99.90
10802;DHT22;5453;50.852;7.102;2023-05-24T04:34:31;9.10;99.90
10802;DHT22;5453;50.852;7.102;2023-05-24T04:37:04;9.10;99.90
10802;DHT22;5453;50.852;7.102;2023-05-24T04:39:36;9.20;99.90
10802;DHT22;5453;50.852;7.102;2023-05-24T04:42:08;9.20;99.90
10802;DHT22;5453;50.852;7.102;2023-05-24T04:44:40;9.10;99.90
10802;DHT22;5453;50.852;7.102;2023-05-24T04:47:13;9.20;99.90
10802;DHT22;5453;50.852;7.102;2023-05-24T04:49:45;9.20;99.90
10802;DHT22;5453;50.852;7.102;2023-05-24T04:52:17;9.40;99.90
10802;DHT22;5453;50.852;7.102;2023-05-24T04:54:49;9.50;99.90
10802;DHT22;5453;50.852;7.102;2023-05-24T04:57:22;9.80;99.90
10802;DHT22;5453;50.852;7.102;2023-05-24T04:59:54;10.00;99.90
10802;DHT22;5453;50.852;7.102;2023-05-24T05:02:27;10.20;99.90
10802;DHT22;5453;50.852;7.102;2023-05-24T05:05:00;10.50;99.90
10802;DHT22;5453;50.852;7.102;2023-05-24T05:07:32;10.70;99.90
10802;DHT22;5453;50.852;7.102;2023-05-24T05:10:05;11.00;99.90
10802;DHT22;5453;50.852;7.102;2023-05-24T05:12:38;11.20;99.90
10802;DHT22;5453;50.852;7.102;2023-05-24T05:15:10;11.30;99.90
10802;DHT22;5453;50.852;7.102;2023-05-24T05:17:44;11.50;99.90
10802;DHT22;5453;50.852;7.102;2023-05-24T05:20:16;11.70;99.90
10802;DHT22;5453;50.852;7.102;2023-05-24T05:22:49;11.90;99.90
10802;DHT22;5453;50.852;7.102;2023-05-24T05:25:21;12.00;99.90
10802;DHT22;5453;50.852;7.102;2023-05-24T05:27:53;12.10;99.90
10802;DHT22;5453;50.852;7.102;2023-05-24T05:30:25;12.20;99.90
10802;DHT22;5453;50.852;7.102;2023-05-24T05:32:58;12.40;99.90
10802;DHT22;5453;50.852;7.102;2023-05-24T05:35:31;12.60;99.90
10802;DHT22;5453;50.852;7.102;2023-05-24T05:38:03;12.70;99.90
10802;DHT22;5453;50.852;7.102;2023-05-24T05:40:35;12.80;99.90
10802;DHT22;5453;50.852;7.102;2023-05-24T05:43:07;12.90;99.90
10802;DHT22;5453;50.852;7.102;2023-05-24T05:45:39;12.90;99.90
10802;DHT22;5453;50.852;7.102;2023-05-24T05:48:13;12.90;99.90
10802;DHT22;5453;50.852;7.102;2023-05-24T05:50:45;13.00;99.90
10802;DHT22;5453;50.852;7.102;2023-05-24T05:53:17;13.10;99.90
10802;DHT22;5453;50.852;7.102;2023-05-24T05:55:49;13.40;99.90
10802;DHT22;5453;50.852;7.102;2023-05-24T05:58:21;13.60;99.90
10802;DHT22;5453;50.852;7.102;2023-05-24T06:00:53;13.70;99.90
10802;DHT22;5453;50.852;7.102;2023-05-24T06:03:26;13.80;99.90
10802;DHT22;5453;50.852;7.102;2023-05-24T06:05:59;14.00;99.90
10802;DHT22;5453;50.852;7.102;2023-05-24T06:08:31;14.00;99.90
10802;DHT22;5453;50.852;7.102;2023-05-24T06:11:04;14.20;99.90
10802;DHT22;5453;50.852;7.102;2023-05-24T06:13:36;14.30;99.90
10802;DHT22;5453;50.852;7.102;2023-05-24T06:16:08;14.40;99.90
10802;DHT22;5453;50.852;7.102;2023-05-24T06:18:42;14.40;99.90
10802;DHT22;5453;50.852;7.102;2023-05-24T06:21:14;14.50;99.90
10802;DHT22;5453;50.852;7.102;2023-05-24T06:23:46;14.70;99.90
10802;DHT22;5453;50.852;7.102;2023-05-24T06:26:18;14.90;99.90
10802;DHT22;5453;50.852;7.102;2023-05-24T06:28:51;15.10;99.90
10802;DHT22;5453;50.852;7.102;2023-05-24T06:31:24;15.30;99.70
10802;DHT22;5453;50.852;7.102;2023-05-24T06:33:57;15.50;99.40
10802;DHT22;5453;50.852;7.102;2023-05-24T06:36:29;15.50;99.00
10802;DHT22;5453;50.852;7.102;2023-05-24T06:39:03;15.60;98.60
10802;DHT22;5453;50.852;7.102;2023-05-24T06:41:35;15.70;98.50
10802;DHT22;5453;50.852;7.102;2023-05-24T06:44:08;15.80;98.10
10802;DHT22;5453;50.852;7.102;2023-05-24T06:46:40;15.80;97.70
10802;DHT22;5453;50.852;7.102;2023-05-24T06:49:14;15.90;97.50
10802;DHT22;5453;50.852;7.102;2023-05-24T06:51:46;16.10;97.50
10802;DHT22;5453;50.852;7.102;2023-05-24T06:54:18;16.10;96.90
10802;DHT22;5453;50.852;7.102;2023-05-24T06:56:51;16.00;96.40
10802;DHT22;5453;50.852;7.102;2023-05-24T06:59:23;16.00;96.50
10802;DHT22;5453;50.852;7.102;2023-05-24T07:01:55;16.10;96.80
10802;DHT22;5453;50.852;7.102;2023-05-24T07:04:29;16.10;96.40
10802;DHT22;5453;50.852;7.102;2023-05-24T07:07:01;16.10;96.10
10802;DHT22;5453;50.852;7.102;2023-05-24T07:09:34;16.10;96.10
10802;DHT22;5453;50.852;7.102;2023-05-24T07:12:06;16.20;96.20
10802;DHT22;5453;50.852;7.102;2023-05-24T07:14:39;16.50;97.30
10802;DHT22;5453;50.852;7.102;2023-05-24T07:17:11;16.90;96.50
10802;DHT22;5453;50.852;7.102;2023-05-24T07:19:44;17.10;95.20
10802;DHT22;5453;50.852;7.102;2023-05-24T07:22:16;17.10;93.70
10802;DHT22;5453;50.852;7.102;2023-05-24T07:24:48;17.00;92.90
10802;DHT22;5453;50.852;7.102;2023-05-24T07:27:20;16.70;92.80
10802;DHT22;5453;50.852;7.102;2023-05-24T07:29:53;16.30;92.20
10802;DHT22;5453;50.852;7.102;2023-05-24T07:32:25;16.00;92.50
10802;DHT22;5453;50.852;7.102;2023-05-24T07:34:58;15.80;93.00
10802;DHT22;5453;50.852;7.102;2023-05-24T07:37:30;15.60;93.30
10802;DHT22;5453;50.852;7.102;2023-05-24T07:40:03;15.60;93.60
10802;DHT22;5453;50.852;7.102;2023-05-24T07:42:36;15.60;94.10
10802;DHT22;5453;50.852;7.102;2023-05-24T07:45:09;15.70;94.30
10802;DHT22;5453;50.852;7.102;2023-05-24T07:47:41;15.80;94.00
10802;DHT22;5453;50.852;7.102;2023-05-24T07:50:14;15.70;94.30
10802;DHT22;5453;50.852;7.102;2023-05-24T07:52:47;15.60;94.10
10802;DHT22;5453;50.852;7.102;2023-05-24T07:55:19;15.50;94.30
10802;DHT22;5453;50.852;7.102;2023-05-24T07:57:51;15.60;95.00
10802;DHT22;5453;50.852;7.102;2023-05-24T08:00:24;15.90;95.10
10802;DHT22;5453;50.852;7.102;2023-05-24T08:02:56;16.40;94.80
10802;DHT22;5453;50.852;7.102;2023-05-24T08:05:29;16.60;94.00
10802;DHT22;5453;50.852;7.102;2023-05-24T08:08:02;16.60;93.20
10802;DHT22;5453;50.852;7.102;2023-05-24T08:10:34;16.80;93.10
10802;DHT22;5453;50.852;7.102;2023-05-24T08:13:06;17.10;92.90
10802;DHT22;5453;50.852;7.102;2023-05-24T08:15:38;17.40;92.50
10802;DHT22;5453;50.852;7.102;2023-05-24T08:18:10;17.90;90.90
10802;DHT22;5453;50.852;7.102;2023-05-24T08:20:44;18.10;90.20
10802;DHT22;5453;50.852;7.102;2023-05-24T08:23:16;18.40;89.20
10802;DHT22;5453;50.852;7.102;2023-05-24T08:25:48;18.60;86.90
10802;DHT22;5453;50.852;7.102;2023-05-24T08:28:20;18.70;85.60
10802;DHT22;5453;50.852;7.102;2023-05-24T08:30:52;18.60;85.30
10802;DHT22;5453;50.852;7.102;2023-05-24T08:33:24;18.30;85.40
10802;DHT22;5453;50.852;7.102;2023-05-24T08:35:57;18.00;86.80
10802;DHT22;5453;50.852;7.102;2023-05-24T08:38:30;17.80;86.50
10802;DHT22;5453;50.852;7.102;2023-05-24T08:41:04;17.60;86.60
10802;DHT22;5453;50.852;7.102;2023-05-24T08:43:38;17.50;87.00
10802;DHT22;5453;50.852;7.102;2023-05-24T08:46:11;17.30;87.60
10802;DHT22;5453;50.852;7.102;2023-05-24T08:48:45;17.00;88.00
10802;DHT22;5453;50.852;7.102;2023-05-24T08:51:19;16.70;88.60
10802;DHT22;5453;50.852;7.102;2023-05-24T08:53:51;16.50;89.40
10802;DHT22;5453;50.852;7.102;2023-05-24T08:56:24;16.30;90.10
10802;DHT22;5453;50.852;7.102;2023-05-24T08:58:57;16.10;90.70
10802;DHT22;5453;50.852;7.102;2023-05-24T09:01:30;15.90;91.00
10802;DHT22;5453;50.852;7.102;2023-05-24T09:04:03;15.70;91.00
10802;DHT22;5453;50.852;7.102;2023-05-24T09:06:38;15.60;91.40
10802;DHT22;5453;50.852;7.102;2023-05-24T09:09:10;15.50;91.90
10802;DHT22;5453;50.852;7.102;2023-05-24T09:11:44;15.30;92.20
10802;DHT22;5453;50.852;7.102;2023-05-24T09:14:18;15.20;92.80
10802;DHT22;5453;50.852;7.102;2023-05-24T09:16:51;15.20;93.20
10802;DHT22;5453;50.852;7.102;2023-05-24T09:19:23;15.20;93.40
10802;DHT22;5453;50.852;7.102;2023-05-24T09:21:59;15.30;93.80
10802;DHT22;5453;50.852;7.102;2023-05-24T09:24:39;15.60;93.80
10802;DHT22;5453;50.852;7.102;2023-05-24T09:27:13;16.10;93.70
10802;DHT22;5453;50.852;7.102;2023-05-24T09:29:46;16.40;92.50
10802;DHT22;5453;50.852;7.102;2023-05-24T09:32:21;16.50;91.80
10802;DHT22;5453;50.852;7.102;2023-05-24T09:34:56;16.40;91.80
10802;DHT22;5453;50.852;7.102;2023-05-24T09:37:30;16.40;91.90
10802;DHT22;5453;50.852;7.102;2023-05-24T09:40:03;16.20;91.50
10802;DHT22;5453;50.852;7.102;2023-05-24T09:42:36;16.00;91.40
10802;DHT22;5453;50.852;7.102;2023-05-24T09:45:08;15.90;91.40
10802;DHT22;5453;50.852;7.102;2023-05-24T09:47:42;15.80;91.70
10802;DHT22;5453;50.852;7.102;2023-05-24T09:50:15;15.90;92.30
10802;DHT22;5453;50.852;7.102;2023-05-24T09:52:50;16.20;92.30
10802;DHT22;5453;50.852;7.102;2023-05-24T09:55:24;16.50;91.30
10802;DHT22;5453;50.852;7.102;2023-05-24T09:58:02;16.60;90.00
10802;DHT22;5453;50.852;7.102;2023-05-24T10:00:38;16.60;89.80
10802;DHT22;5453;50.852;7.102;2023-05-24T10:03:11;16.50;88.30
10802;DHT22;5453;50.852;7.102;2023-05-24T10:05:44;16.40;87.40
10802;DHT22;5453;50.852;7.102;2023-05-24T10:08:19;16.20;87.70
10802;DHT22;5453;50.852;7.102;2023-05-24T10:10:52;16.20;89.00
10802;DHT22;5453;50.852;7.102;2023-05-24T10:13:26;16.20;89.70
10802;DHT22;5453;50.852;7.102;2023-05-24T10:15:59;16.30;90.20
10802;DHT22;5453;50.852;7.102;2023-05-24T10:18:31;16.30;90.20
10802;DHT22;5453;50.852;7.102;2023-05-24T10:21:04;16.40;90.70
10802;DHT22;5453;50.852;7.102;2023-05-24T10:23:42;16.50;90.50
10802;DHT22;5453;50.852;7.102;2023-05-24T10:26:15;16.50;90.40
10802;DHT22;5453;50.852;7.102;2023-05-24T10:28:51;16.40;90.40
10802;DHT22;5453;50.852;7.102;2023-05-24T10:31:30;16.40;90.40
10802;DHT22;5453;50.852;7.102;2023-05-24T10:34:04;16.30;90.30
10802;DHT22;5453;50.852;7.102;2023-05-24T10:36:38;16.20;90.50
10802;DHT22;5453;50.852;7.102;2023-05-24T10:39:12;16.20;90.70
10802;DHT22;5453;50.852;7.102;2023-05-24T10:41:44;16.20;90.70
10802;DHT22;5453;50.852;7.102;2023-05-24T10:44:18;16.30;91.00
10802;DHT22;5453;50.852;7.102;2023-05-24T10:47:07;16.40;91.30
10802;DHT22;5453;50.852;7.102;2023-05-24T10:49:47;16.60;90.80
10802;DHT22;5453;50.852;7.102;2023-05-24T10:52:20;16.60;90.30
10802;DHT22;5453;50.852;7.102;2023-05-24T10:55:04;16.60;89.80
10802;DHT22;5453;50.852;7.102;2023-05-24T10:57:38;16.50;88.50
10802;DHT22;5453;50.852;7.102;2023-05-24T11:00:27;16.40;88.50
10802;DHT22;5453;50.852;7.102;2023-05-24T11:03:01;16.30;88.80
10802;DHT22;5453;50.852;7.102;2023-05-24T11:05:34;16.20;89.40
10802;DHT22;5453;50.852;7.102;2023-05-24T11:08:06;16.20;90.00
10802;DHT22;5453;50.852;7.102;2023-05-24T11:10:40;16.10;89.20
10802;DHT22;5453;50.852;7.102;2023-05-24T11:13:12;16.10;89.10
10802;DHT22;5453;50.852;7.102;2023-05-24T11:15:49;16.30;90.30
10802;DHT22;5453;50.852;7.102;2023-05-24T11:18:22;16.70;90.40
10802;DHT22;5453;50.852;7.102;2023-05-24T11:20:54;17.10;88.90
10802;DHT22;5453;50.852;7.102;2023-05-24T11:23:28;17.40;88.80
10802;DHT22;5453;50.852;7.102;2023-05-24T11:26:01;17.70;88.40
10802;DHT22;5453;50.852;7.102;2023-05-24T11:28:35;17.80;87.10
10802;DHT22;5453;50.852;7.102;2023-05-24T11:31:08;17.80;86.40
10802;DHT22;5453;50.852;7.102;2023-05-24T11:33:40;17.60;86.00
10802;DHT22;5453;50.852;7.102;2023-05-24T11:36:13;17.40;85.50
10802;DHT22;5453;50.852;7.102;2023-05-24T11:38:46;17.10;85.90
10802;DHT22;5453;50.852;7.102;2023-05-24T11:41:19;16.90;85.50
10802;DHT22;5453;50.852;7.102;2023-05-24T11:43:51;16.80;86.60
10802;DHT22;5453;50.852;7.102;2023-05-24T11:46:24;17.00;89.10
10802;DHT22;5453;50.852;7.102;2023-05-24T11:48:57;17.10;88.90
10802;DHT22;5453;50.852;7.102;2023-05-24T11:51:30;17.00;87.60
10802;DHT22;5453;50.852;7.102;2023-05-24T11:54:03;17.00;86.80
10802;DHT22;5453;50.852;7.102;2023-05-24T11:56:36;16.90;86.40
10802;DHT22;5453;50.852;7.102;2023-05-24T11:59:13;16.70;85.70
10802;DHT22;5453;50.852;7.102;2023-05-24T12:01:46;16.60;85.60
10802;DHT22;5453;50.852;7.102;2023-05-24T12:04:19;16.50;85.70
10802;DHT22;5453;50.852;7.102;2023-05-24T12:06:51;16.30;86.60
10802;DHT22;5453;50.852;7.102;2023-05-24T12:09:24;16.20;86.80
10802;DHT22;5453;50.852;7.102;2023-05-24T12:11:58;16.20;87.50
10802;DHT22;5453;50.852;7.102;2023-05-24T12:14:32;16.10;88.50
10802;DHT22;5453;50.852;7.102;2023-05-24T12:17:13;16.00;88.30
10802;DHT22;5453;50.852;7.102;2023-05-24T12:19:48;15.90;88.80
10802;DHT22;5453;50.852;7.102;2023-05-24T12:22:26;15.90;88.90
10802;DHT22;5453;50.852;7.102;2023-05-24T12:25:02;15.90;89.20
10802;DHT22;5453;50.852;7.102;2023-05-24T12:27:39;15.90;89.40
10802;DHT22;5453;50.852;7.102;2023-05-24T12:30:21;16.00;89.80
10802;DHT22;5453;50.852;7.102;2023-05-24T12:32:53;16.00;89.50
10802;DHT22;5453;50.852;7.102;2023-05-24T12:35:26;16.00;89.60
10802;DHT22;5453;50.852;7.102;2023-05-24T12:37:58;16.10;90.00
10802;DHT22;5453;50.852;7.102;2023-05-24T12:40:32;16.20;88.80
10802;DHT22;5453;50.852;7.102;2023-05-24T12:43:05;16.20;88.20
10802;DHT22;5453;50.852;7.102;2023-05-24T12:45:37;16.20;88.50
10802;DHT22;5453;50.852;7.102;2023-05-24T12:48:10;16.30;88.80
10802;DHT22;5453;50.852;7.102;2023-05-24T12:50:42;16.40;87.80
10802;DHT22;5453;50.852;7.102;2023-05-24T12:53:14;16.40;87.60
10802;DHT22;5453;50.852;7.102;2023-05-24T12:55:46;16.50;87.30
10802;DHT22;5453;50.852;7.102;2023-05-24T12:58:21;16.50;87.30
10802;DHT22;5453;50.852;7.102;2023-05-24T13:00:53;16.60;86.70
10802;DHT22;5453;50.852;7.102;2023-05-24T13:03:25;16.60;86.50
10802;DHT22;5453;50.852;7.102;2023-05-24T13:05:57;16.70;86.70
10802;DHT22;5453;50.852;7.102;2023-05-24T13:08:30;16.70;86.80
10802;DHT22;5453;50.852;7.102;2023-05-24T13:11:02;16.80;86.10
10802;DHT22;5453;50.852;7.102;2023-05-24T13:13:35;16.90;86.10
10802;DHT22;5453;50.852;7.102;2023-05-24T13:16:08;16.80;85.80
10802;DHT22;5453;50.852;7.102;2023-05-24T13:18:40;16.80;85.80
10802;DHT22;5453;50.852;7.102;2023-05-24T13:21:12;16.80;85.90
10802;DHT22;5453;50.852;7.102;2023-05-24T13:23:44;16.80;86.30
10802;DHT22;5453;50.852;7.102;2023-05-24T13:26:16;16.70;86.10
10802;DHT22;5453;50.852;7.102;2023-05-24T13:28:50;16.70;85.60
10802;DHT22;5453;50.852;7.102;2023-05-24T13:31:22;16.60;85.30
10802;DHT22;5453;50.852;7.102;2023-05-24T13:33:54;16.60;86.00
10802;DHT22;5453;50.852;7.102;2023-05-24T13:36:27;16.60;86.00
10802;DHT22;5453;50.852;7.102;2023-05-24T13:38:59;16.60;86.60
10802;DHT22;5453;50.852;7.102;2023-05-24T13:41:31;16.60;86.30
10802;DHT22;5453;50.852;7.102;2023-05-24T13:44:05;16.60;86.00
10802;DHT22;5453;50.852;7.102;2023-05-24T13:46:38;16.60;86.50
10802;DHT22;5453;50.852;7.102;2023-05-24T13:49:10;16.60;86.60
10802;DHT22;5453;50.852;7.102;2023-05-24T13:51:43;16.60;86.70
10802;DHT22;5453;50.852;7.102;2023-05-24T13:54:15;16.50;86.90
10802;DHT22;5453;50.852;7.102;2023-05-24T13:56:47;16.50;87.00
10802;DHT22;5453;50.852;7.102;2023-05-24T13:59:20;16.50;87.30
10802;DHT22;5453;50.852;7.102;2023-05-24T14:01:52;16.50;87.30
10802;DHT22;5453;50.852;7.102;2023-05-24T14:04:24;16.50;87.20
10802;DHT22;5453;50.852;7.102;2023-05-24T14:06:56;16.50;86.60
10802;DHT22;5453;50.852;7.102;2023-05-24T14:09:28;16.50;85.90
10802;DHT22;5453;50.852;7.102;2023-05-24T14:12:00;16.60;86.10
10802;DHT22;5453;50.852;7.102;2023-05-24T14:14:34;16.70;86.90
10802;DHT22;5453;50.852;7.102;2023-05-24T14:17:06;16.80;87.80
10802;DHT22;5453;50.852;7.102;2023-05-24T14:19:38;16.90;87.60
10802;DHT22;5453;50.852;7.102;2023-05-24T14:22:10;17.00;86.80
10802;DHT22;5453;50.852;7.102;2023-05-24T14:24:42;17.10;84.80
10802;DHT22;5453;50.852;7.102;2023-05-24T14:27:14;17.10;85.40
10802;DHT22;5453;50.852;7.102;2023-05-24T14:29:48;17.20;86.40
10802;DHT22;5453;50.852;7.102;2023-05-24T14:32:20;17.30;85.70
10802;DHT22;5453;50.852;7.102;2023-05-24T14:34:52;17.20;84.60
10802;DHT22;5453;50.852;7.102;2023-05-24T14:37:24;17.20;83.60
10802;DHT22;5453;50.852;7.102;2023-05-24T14:39:56;17.30;83.40
10802;DHT22;5453;50.852;7.102;2023-05-24T14:42:28;17.30;83.90
10802;DHT22;5453;50.852;7.102;2023-05-24T14:45:02;17.30;85.10
10802;DHT22;5453;50.852;7.102;2023-05-24T14:47:34;17.30;85.90
10802;DHT22;5453;50.852;7.102;2023-05-24T14:50:07;17.30;86.30
10802;DHT22;5453;50.852;7.102;2023-05-24T14:52:39;17.20;86.10
10802;DHT22;5453;50.852;7.102;2023-05-24T14:55:11;17.20;86.10
10802;DHT22;5453;50.852;7.102;2023-05-24T14:57:44;17.20;85.80
10802;DHT22;5453;50.852;7.102;2023-05-24T15:00:18;17.10;84.20
10802;DHT22;5453;50.852;7.102;2023-05-24T15:02:51;17.00;83.20
10802;DHT22;5453;50.852;7.102;2023-05-24T15:05:23;16.90;83.70
10802;DHT22;5453;50.852;7.102;2023-05-24T15:07:55;16.90;84.00
10802;DHT22;5453;50.852;7.102;2023-05-24T15:10:27;16.90;83.20
10802;DHT22;5453;50.852;7.102;2023-05-24T15:12:59;16.90;83.30
10802;DHT22;5453;50.852;7.102;2023-05-24T15:15:34;16.90;83.30
10802;DHT22;5453;50.852;7.102;2023-05-24T15:18:06;16.80;83.80
10802;DHT22;5453;50.852;7.102;2023-05-24T15:20:38;16.80;84.20
10802;DHT22;5453;50.852;7.102;2023-05-24T15:23:11;16.70;83.80
10802;DHT22;5453;50.852;7.102;2023-05-24T15:25:43;16.70;84.40
10802;DHT22;5453;50.852;7.102;2023-05-24T15:28:16;16.70;84.90
10802;DHT22;5453;50.852;7.102;2023-05-24T15:30:49;16.70;85.30
10802;DHT22;5453;50.852;7.102;2023-05-24T15:33:21;16.80;85.90
10802;DHT22;5453;50.852;7.102;2023-05-24T15:35:53;16.80;86.40
10802;DHT22;5453;50.852;7.102;2023-05-24T15:38:26;16.80;86.20
10802;DHT22;5453;50.852;7.102;2023-05-24T15:40:58;16.90;86.60
10802;DHT22;5453;50.852;7.102;2023-05-24T15:43:30;16.90;86.70
10802;DHT22;5453;50.852;7.102;2023-05-24T15:46:03;17.00;86.90
10802;DHT22;5453;50.852;7.102;2023-05-24T15:48:35;17.00;87.60
10802;DHT22;5453;50.852;7.102;2023-05-24T15:51:08;17.00;88.10
10802;DHT22;5453;50.852;7.102;2023-05-24T15:53:40;17.00;87.50
10802;DHT22;5453;50.852;7.102;2023-05-24T15:56:12;17.00;86.90
10802;DHT22;5453;50.852;7.102;2023-05-24T15:58:44;17.00;87.20
10802;DHT22;5453;50.852;7.102;2023-05-24T16:01:18;16.90;87.10
10802;DHT22;5453;50.852;7.102;2023-05-24T16:03:50;16.90;86.40
10802;DHT22;5453;50.852;7.102;2023-05-24T16:06:22;16.80;86.80
10802;DHT22;5453;50.852;7.102;2023-05-24T16:08:54;16.80;87.20
10802;DHT22;5453;50.852;7.102;2023-05-24T16:11:26;16.70;87.00
10802;DHT22;5453;50.852;7.102;2023-05-24T16:13:58;16.70;87.40
10802;DHT22;5453;50.852;7.102;2023-05-24T16:16:31;16.60;87.80
10802;DHT22;5453;50.852;7.102;2023-05-24T16:19:03;16.50;87.20
10802;DHT22;5453;50.852;7.102;2023-05-24T16:21:35;16.50;87.60
10802;DHT22;5453;50.852;7.102;2023-05-24T16:24:07;16.40;87.70
10802;DHT22;5453;50.852;7.102;2023-05-24T16:26:39;16.40;87.70
10802;DHT22;5453;50.852;7.102;2023-05-24T16:29:12;16.30;88.00